sensor_id;sensor_type;location;lat;lon;timestamp;P1;durP1;ratioP1;P2;durP2;ratioP2
55134;SDS011;41031;44.750;11.308;2024-03-02T00:00:35;15.73;;;4.57;;
55134;SDS011;41031;44.750;11.308;2024-03-02T00:03:05;21.07;;;5.23;;
55134;SDS011;41031;44.750;11.308;2024-03-02T00:05:37;15.00;;;5.40;;
55134;SDS011;41031;44.750;11.308;2024-03-02T00:08:05;20.80;;;5.03;;
55134;SDS011;41031;44.750;11.308;2024-03-02T00:10:39;11.10;;;4.43;;
55134;SDS011;41031;44.750;11.308;2024-03-02T00:13:11;21.23;;;5.30;;
55134;SDS011;41031;44.750;11.308;2024-03-02T00:18:19;19.73;;;6.53;;
55134;SDS011;41031;44.750;11.308;2024-03-02T00:21:01;14.97;;;5.40;;
55134;SDS011;41031;44.750;11.308;2024-03-02T00:23:31;18.47;;;5.30;;
55134;SDS011;41031;44.750;11.308;2024-03-02T00:26:03;20.77;;;6.17;;
55134;SDS011;41031;44.750;11.308;2024-03-02T00:28:34;16.30;;;5.93;;
55134;SDS011;41031;44.750;11.308;2024-03-02T00:31:03;17.67;;;5.77;;
55134;SDS011;41031;44.750;11.308;2024-03-02T00:33:45;16.60;;;5.33;;
55134;SDS011;41031;44.750;11.308;2024-03-02T00:36:15;14.97;;;5.23;;
55134;SDS011;41031;44.750;11.308;2024-03-02T00:38:48;12.17;;;5.07;;
55134;SDS011;41031;44.750;11.308;2024-03-02T00:43:59;12.13;;;4.83;;
55134;SDS011;41031;44.750;11.308;2024-03-02T00:46:35;15.77;;;5.57;;
55134;SDS011;41031;44.750;11.308;2024-03-02T00:49:17;18.53;;;5.50;;
55134;SDS011;41031;44.750;11.308;2024-03-02T00:51:49;12.50;;;4.30;;
55134;SDS011;41031;44.750;11.308;2024-03-02T00:54:26;18.50;;;5.30;;
55134;SDS011;41031;44.750;11.308;2024-03-02T00:56:55;17.00;;;5.13;;
55134;SDS011;41031;44.750;11.308;2024-03-02T00:59:26;19.83;;;4.63;;
55134;SDS011;41031;44.750;11.308;2024-03-02T01:01:53;10.13;;;4.50;;
55134;SDS011;41031;44.750;11.308;2024-03-02T01:04:20;17.80;;;5.67;;
55134;SDS011;41031;44.750;11.308;2024-03-02T01:06:49;10.17;;;3.90;;
55134;SDS011;41031;44.750;11.308;2024-03-02T01:09:17;14.97;;;4.50;;
55134;SDS011;41031;44.750;11.308;2024-03-02T01:11:45;10.10;;;4.47;;
55134;SDS011;41031;44.750;11.308;2024-03-02T01:14:15;16.63;;;4.90;;
55134;SDS011;41031;44.750;11.308;2024-03-02T01:16:42;15.53;;;4.30;;
55134;SDS011;41031;44.750;11.308;2024-03-02T01:19:13;17.27;;;3.97;;
55134;SDS011;41031;44.750;11.308;2024-03-02T01:21:45;12.63;;;3.70;;
55134;SDS011;41031;44.750;11.308;2024-03-02T01:24:13;12.73;;;4.20;;
55134;SDS011;41031;44.750;11.308;2024-03-02T01:26:45;9.93;;;4.20;;
55134;SDS011;41031;44.750;11.308;2024-03-02T01:29:15;15.27;;;4.50;;
55134;SDS011;41031;44.750;11.308;2024-03-02T01:31:46;10.87;;;4.30;;
55134;SDS011;41031;44.750;11.308;2024-03-02T01:34:18;21.33;;;4.47;;
55134;SDS011;41031;44.750;11.308;2024-03-02T01:36:46;9.63;;;3.73;;
55134;SDS011;41031;44.750;11.308;2024-03-02T01:39:14;17.50;;;4.13;;
55134;SDS011;41031;44.750;11.308;2024-03-02T01:41:45;16.40;;;3.90;;
55134;SDS011;41031;44.750;11.308;2024-03-02T01:44:15;19.60;;;3.93;;
55134;SDS011;41031;44.750;11.308;2024-03-02T01:46:43;14.50;;;4.70;;
55134;SDS011;41031;44.750;11.308;2024-03-02T01:49:11;15.70;;;3.77;;
55134;SDS011;41031;44.750;11.308;2024-03-02T01:51:38;17.40;;;4.40;;
55134;SDS011;41031;44.750;11.308;2024-03-02T01:54:07;16.47;;;4.13;;
55134;SDS011;41031;44.750;11.308;2024-03-02T01:56:38;14.30;;;3.87;;
55134;SDS011;41031;44.750;11.308;2024-03-02T01:59:06;17.60;;;4.57;;
55134;SDS011;41031;44.750;11.308;2024-03-02T02:01:34;23.37;;;3.90;;
55134;SDS011;41031;44.750;11.308;2024-03-02T02:04:05;13.00;;;3.47;;
55134;SDS011;41031;44.750;11.308;2024-03-02T02:06:33;14.57;;;3.80;;
55134;SDS011;41031;44.750;11.308;2024-03-02T02:09:00;13.97;;;3.43;;
55134;SDS011;41031;44.750;11.308;2024-03-02T02:11:32;13.70;;;3.73;;
55134;SDS011;41031;44.750;11.308;2024-03-02T02:14:06;11.23;;;3.63;;
55134;SDS011;41031;44.750;11.308;2024-03-02T02:16:36;17.50;;;3.80;;
55134;SDS011;41031;44.750;11.308;2024-03-02T02:19:06;18.60;;;3.43;;
55134;SDS011;41031;44.750;11.308;2024-03-02T02:21:38;12.47;;;3.70;;
55134;SDS011;41031;44.750;11.308;2024-03-02T02:24:12;19.10;;;3.43;;
55134;SDS011;41031;44.750;11.308;2024-03-02T02:26:45;13.00;;;3.17;;
55134;SDS011;41031;44.750;11.308;2024-03-02T02:29:14;11.63;;;2.83;;
55134;SDS011;41031;44.750;11.308;2024-03-02T02:31:42;14.77;;;3.97;;
55134;SDS011;41031;44.750;11.308;2024-03-02T02:34:12;16.67;;;3.57;;
55134;SDS011;41031;44.750;11.308;2024-03-02T02:36:42;16.17;;;3.40;;
55134;SDS011;41031;44.750;11.308;2024-03-02T02:39:13;11.00;;;2.70;;
55134;SDS011;41031;44.750;11.308;2024-03-02T02:41:48;11.37;;;3.63;;
55134;SDS011;41031;44.750;11.308;2024-03-02T02:44:19;9.00;;;3.50;;
55134;SDS011;41031;44.750;11.308;2024-03-02T02:46:50;11.77;;;3.50;;
55134;SDS011;41031;44.750;11.308;2024-03-02T02:49:23;12.97;;;3.07;;
55134;SDS011;41031;44.750;11.308;2024-03-02T02:51:52;15.50;;;3.60;;
55134;SDS011;41031;44.750;11.308;2024-03-02T02:54:20;14.77;;;3.13;;
55134;SDS011;41031;44.750;11.308;2024-03-02T02:56:47;11.53;;;3.10;;
55134;SDS011;41031;44.750;11.308;2024-03-02T02:59:15;9.53;;;3.27;;
55134;SDS011;41031;44.750;11.308;2024-03-02T03:01:42;9.73;;;3.00;;
55134;SDS011;41031;44.750;11.308;2024-03-02T03:04:09;14.77;;;2.93;;
55134;SDS011;41031;44.750;11.308;2024-03-02T03:06:37;10.97;;;2.97;;
55134;SDS011;41031;44.750;11.308;2024-03-02T03:09:04;11.93;;;2.87;;
55134;SDS011;41031;44.750;11.308;2024-03-02T03:11:32;10.30;;;3.00;;
55134;SDS011;41031;44.750;11.308;2024-03-02T03:14:02;9.80;;;3.03;;
55134;SDS011;41031;44.750;11.308;2024-03-02T03:16:31;9.83;;;2.83;;
55134;SDS011;41031;44.750;11.308;2024-03-02T03:18:58;11.37;;;3.97;;
55134;SDS011;41031;44.750;11.308;2024-03-02T03:21:26;10.47;;;3.30;;
55134;SDS011;41031;44.750;11.308;2024-03-02T03:23:53;7.70;;;2.63;;
55134;SDS011;41031;44.750;11.308;2024-03-02T03:26:21;7.93;;;3.13;;
55134;SDS011;41031;44.750;11.308;2024-03-02T03:28:49;14.57;;;3.13;;
55134;SDS011;41031;44.750;11.308;2024-03-02T03:31:16;9.63;;;3.03;;
55134;SDS011;41031;44.750;11.308;2024-03-02T03:33:44;9.83;;;3.50;;
55134;SDS011;41031;44.750;11.308;2024-03-02T03:36:13;8.83;;;3.17;;
55134;SDS011;41031;44.750;11.308;2024-03-02T03:38:43;13.00;;;2.87;;
55134;SDS011;41031;44.750;11.308;2024-03-02T03:41:12;15.17;;;3.17;;
55134;SDS011;41031;44.750;11.308;2024-03-02T03:43:46;15.37;;;3.97;;
55134;SDS011;41031;44.750;11.308;2024-03-02T03:46:18;9.47;;;3.60;;
55134;SDS011;41031;44.750;11.308;2024-03-02T03:48:45;7.57;;;3.57;;
55134;SDS011;41031;44.750;11.308;2024-03-02T03:51:15;7.47;;;3.20;;
55134;SDS011;41031;44.750;11.308;2024-03-02T03:53:43;17.50;;;3.83;;
55134;SDS011;41031;44.750;11.308;2024-03-02T03:56:10;11.17;;;3.77;;
55134;SDS011;41031;44.750;11.308;2024-03-02T03:58:39;12.00;;;3.90;;
55134;SDS011;41031;44.750;11.308;2024-03-02T04:01:09;9.93;;;3.53;;
55134;SDS011;41031;44.750;11.308;2024-03-02T04:03:38;18.43;;;3.07;;
55134;SDS011;41031;44.750;11.308;2024-03-02T04:06:09;11.13;;;3.53;;
55134;SDS011;41031;44.750;11.308;2024-03-02T04:08:41;15.00;;;3.50;;
55134;SDS011;41031;44.750;11.308;2024-03-02T04:11:09;9.03;;;3.03;;
55134;SDS011;41031;44.750;11.308;2024-03-02T04:13:39;11.70;;;3.57;;
55134;SDS011;41031;44.750;11.308;2024-03-02T04:16:08;7.87;;;3.20;;
55134;SDS011;41031;44.750;11.308;2024-03-02T04:18:39;9.73;;;3.93;;
55134;SDS011;41031;44.750;11.308;2024-03-02T04:21:06;9.23;;;3.73;;
55134;SDS011;41031;44.750;11.308;2024-03-02T04:23:38;11.50;;;3.30;;
55134;SDS011;41031;44.750;11.308;2024-03-02T04:26:07;6.67;;;3.10;;
55134;SDS011;41031;44.750;11.308;2024-03-02T04:28:34;9.23;;;3.37;;
55134;SDS011;41031;44.750;11.308;2024-03-02T04:31:03;13.60;;;3.63;;
55134;SDS011;41031;44.750;11.308;2024-03-02T04:33:33;11.20;;;3.70;;
55134;SDS011;41031;44.750;11.308;2024-03-02T04:36:03;6.57;;;3.37;;
55134;SDS011;41031;44.750;11.308;2024-03-02T04:38:34;10.70;;;3.80;;
55134;SDS011;41031;44.750;11.308;2024-03-02T04:41:04;10.90;;;3.80;;
55134;SDS011;41031;44.750;11.308;2024-03-02T04:43:35;14.67;;;4.53;;
55134;SDS011;41031;44.750;11.308;2024-03-02T04:46:05;16.03;;;4.57;;
55134;SDS011;41031;44.750;11.308;2024-03-02T04:48:37;7.90;;;3.73;;
55134;SDS011;41031;44.750;11.308;2024-03-02T04:51:04;9.47;;;3.57;;
55134;SDS011;41031;44.750;11.308;2024-03-02T04:53:32;15.83;;;4.73;;
55134;SDS011;41031;44.750;11.308;2024-03-02T04:56:01;13.37;;;5.73;;
55134;SDS011;41031;44.750;11.308;2024-03-02T04:58:48;13.53;;;5.40;;
55134;SDS011;41031;44.750;11.308;2024-03-02T05:01:16;14.83;;;5.20;;
55134;SDS011;41031;44.750;11.308;2024-03-02T05:03:46;13.37;;;5.40;;
55134;SDS011;41031;44.750;11.308;2024-03-02T05:06:13;13.33;;;5.53;;
55134;SDS011;41031;44.750;11.308;2024-03-02T05:08:42;9.20;;;4.97;;
55134;SDS011;41031;44.750;11.308;2024-03-02T05:11:11;17.13;;;4.80;;
55134;SDS011;41031;44.750;11.308;2024-03-02T05:14:21;10.43;;;5.00;;
55134;SDS011;41031;44.750;11.308;2024-03-02T05:16:51;12.67;;;5.77;;
55134;SDS011;41031;44.750;11.308;2024-03-02T05:19:22;11.00;;;5.07;;
55134;SDS011;41031;44.750;11.308;2024-03-02T05:21:51;13.73;;;5.63;;
55134;SDS011;41031;44.750;11.308;2024-03-02T05:24:21;11.37;;;5.63;;
55134;SDS011;41031;44.750;11.308;2024-03-02T05:26:52;13.30;;;5.10;;
55134;SDS011;41031;44.750;11.308;2024-03-02T05:29:19;14.77;;;5.40;;
55134;SDS011;41031;44.750;11.308;2024-03-02T05:31:49;15.23;;;5.63;;
55134;SDS011;41031;44.750;11.308;2024-03-02T05:34:21;10.40;;;5.53;;
55134;SDS011;41031;44.750;11.308;2024-03-02T05:36:52;11.43;;;5.97;;
55134;SDS011;41031;44.750;11.308;2024-03-02T05:39:21;11.57;;;5.77;;
55134;SDS011;41031;44.750;11.308;2024-03-02T05:41:49;16.00;;;6.83;;
55134;SDS011;41031;44.750;11.308;2024-03-02T05:44:17;13.63;;;6.10;;
55134;SDS011;41031;44.750;11.308;2024-03-02T05:46:48;12.57;;;6.90;;
55134;SDS011;41031;44.750;11.308;2024-03-02T05:49:18;17.67;;;7.23;;
55134;SDS011;41031;44.750;11.308;2024-03-02T05:51:48;9.03;;;6.67;;
55134;SDS011;41031;44.750;11.308;2024-03-02T05:54:15;13.17;;;7.00;;
55134;SDS011;41031;44.750;11.308;2024-03-02T05:56:45;11.10;;;6.40;;
55134;SDS011;41031;44.750;11.308;2024-03-02T05:59:16;9.57;;;6.57;;
55134;SDS011;41031;44.750;11.308;2024-03-02T06:01:48;12.77;;;6.60;;
55134;SDS011;41031;44.750;11.308;2024-03-02T06:04:21;13.30;;;5.97;;
55134;SDS011;41031;44.750;11.308;2024-03-02T06:06:54;10.27;;;6.53;;
55134;SDS011;41031;44.750;11.308;2024-03-02T06:09:24;10.27;;;6.43;;
55134;SDS011;41031;44.750;11.308;2024-03-02T06:11:55;11.77;;;6.37;;
55134;SDS011;41031;44.750;11.308;2024-03-02T06:14:25;12.00;;;7.07;;
55134;SDS011;41031;44.750;11.308;2024-03-02T06:16:52;12.53;;;7.70;;
55134;SDS011;41031;44.750;11.308;2024-03-02T06:19:24;15.17;;;7.80;;
55134;SDS011;41031;44.750;11.308;2024-03-02T06:21:54;12.40;;;7.77;;
55134;SDS011;41031;44.750;11.308;2024-03-02T06:24:24;17.33;;;7.33;;
55134;SDS011;41031;44.750;11.308;2024-03-02T06:26:53;16.77;;;6.67;;
55134;SDS011;41031;44.750;11.308;2024-03-02T06:29:22;15.80;;;6.63;;
55134;SDS011;41031;44.750;11.308;2024-03-02T06:31:49;12.90;;;6.17;;
55134;SDS011;41031;44.750;11.308;2024-03-02T06:34:20;7.57;;;5.13;;
55134;SDS011;41031;44.750;11.308;2024-03-02T06:36:48;13.77;;;5.87;;
55134;SDS011;41031;44.750;11.308;2024-03-02T06:39:17;12.37;;;6.03;;
55134;SDS011;41031;44.750;11.308;2024-03-02T06:41:47;9.43;;;5.73;;
55134;SDS011;41031;44.750;11.308;2024-03-02T06:44:17;12.23;;;6.20;;
55134;SDS011;41031;44.750;11.308;2024-03-02T06:46:46;9.00;;;5.70;;
55134;SDS011;41031;44.750;11.308;2024-03-02T06:49:17;12.47;;;6.03;;
55134;SDS011;41031;44.750;11.308;2024-03-02T06:51:47;9.67;;;6.67;;
55134;SDS011;41031;44.750;11.308;2024-03-02T06:54:17;12.47;;;6.33;;
55134;SDS011;41031;44.750;11.308;2024-03-02T06:56:48;13.03;;;6.60;;
55134;SDS011;41031;44.750;11.308;2024-03-02T06:59:17;11.90;;;6.47;;
55134;SDS011;41031;44.750;11.308;2024-03-02T07:01:47;11.70;;;5.90;;
55134;SDS011;41031;44.750;11.308;2024-03-02T07:04:16;10.57;;;6.17;;
55134;SDS011;41031;44.750;11.308;2024-03-02T07:06:45;9.37;;;5.73;;
55134;SDS011;41031;44.750;11.308;2024-03-02T07:09:14;11.30;;;6.27;;
55134;SDS011;41031;44.750;11.308;2024-03-02T07:11:43;13.33;;;7.30;;
55134;SDS011;41031;44.750;11.308;2024-03-02T07:14:17;16.50;;;8.03;;
55134;SDS011;41031;44.750;11.308;2024-03-02T07:16:45;8.13;;;6.73;;
55134;SDS011;41031;44.750;11.308;2024-03-02T07:19:14;12.17;;;6.30;;
55134;SDS011;41031;44.750;11.308;2024-03-02T07:21:44;8.77;;;6.30;;
55134;SDS011;41031;44.750;11.308;2024-03-02T07:24:11;12.13;;;6.97;;
55134;SDS011;41031;44.750;11.308;2024-03-02T07:26:43;13.13;;;7.17;;
55134;SDS011;41031;44.750;11.308;2024-03-02T07:29:14;15.23;;;7.80;;
55134;SDS011;41031;44.750;11.308;2024-03-02T07:31:42;12.37;;;7.03;;
55134;SDS011;41031;44.750;11.308;2024-03-02T07:34:11;11.20;;;7.23;;
55134;SDS011;41031;44.750;11.308;2024-03-02T07:36:41;14.77;;;7.60;;
55134;SDS011;41031;44.750;11.308;2024-03-02T07:39:11;10.20;;;7.40;;
55134;SDS011;41031;44.750;11.308;2024-03-02T07:41:41;12.33;;;7.07;;
55134;SDS011;41031;44.750;11.308;2024-03-02T07:44:10;15.57;;;7.47;;
55134;SDS011;41031;44.750;11.308;2024-03-02T07:46:42;15.30;;;7.93;;
55134;SDS011;41031;44.750;11.308;2024-03-02T07:49:11;12.23;;;7.93;;
55134;SDS011;41031;44.750;11.308;2024-03-02T07:51:44;13.23;;;6.80;;
55134;SDS011;41031;44.750;11.308;2024-03-02T07:54:14;10.70;;;6.87;;
55134;SDS011;41031;44.750;11.308;2024-03-02T07:56:44;9.97;;;6.20;;
55134;SDS011;41031;44.750;11.308;2024-03-02T07:59:15;7.80;;;5.87;;
55134;SDS011;41031;44.750;11.308;2024-03-02T08:01:44;7.93;;;6.00;;
55134;SDS011;41031;44.750;11.308;2024-03-02T08:04:13;6.63;;;5.70;;
55134;SDS011;41031;44.750;11.308;2024-03-02T08:06:42;9.77;;;6.13;;
55134;SDS011;41031;44.750;11.308;2024-03-02T08:09:15;10.97;;;5.70;;
55134;SDS011;41031;44.750;11.308;2024-03-02T08:11:45;9.80;;;6.00;;
55134;SDS011;41031;44.750;11.308;2024-03-02T08:14:14;8.90;;;5.83;;
55134;SDS011;41031;44.750;11.308;2024-03-02T08:16:45;8.90;;;6.03;;
55134;SDS011;41031;44.750;11.308;2024-03-02T08:19:16;7.63;;;5.50;;
55134;SDS011;41031;44.750;11.308;2024-03-02T08:21:46;10.93;;;5.73;;
55134;SDS011;41031;44.750;11.308;2024-03-02T08:24:15;10.47;;;5.97;;
55134;SDS011;41031;44.750;11.308;2024-03-02T08:26:44;10.10;;;5.17;;
55134;SDS011;41031;44.750;11.308;2024-03-02T08:29:14;9.27;;;5.60;;
55134;SDS011;41031;44.750;11.308;2024-03-02T08:31:43;10.17;;;5.67;;
55134;SDS011;41031;44.750;11.308;2024-03-02T08:34:14;8.10;;;5.90;;
55134;SDS011;41031;44.750;11.308;2024-03-02T08:36:45;12.23;;;5.33;;
55134;SDS011;41031;44.750;11.308;2024-03-02T08:39:17;8.43;;;5.40;;
55134;SDS011;41031;44.750;11.308;2024-03-02T08:41:47;12.23;;;5.80;;
55134;SDS011;41031;44.750;11.308;2024-03-02T08:44:17;7.77;;;5.17;;
55134;SDS011;41031;44.750;11.308;2024-03-02T08:46:48;9.77;;;5.33;;
55134;SDS011;41031;44.750;11.308;2024-03-02T08:49:16;9.97;;;5.10;;
55134;SDS011;41031;44.750;11.308;2024-03-02T08:51:45;10.27;;;5.23;;
55134;SDS011;41031;44.750;11.308;2024-03-02T08:54:22;7.23;;;4.60;;
55134;SDS011;41031;44.750;11.308;2024-03-02T08:56:52;9.30;;;5.10;;
55134;SDS011;41031;44.750;11.308;2024-03-02T08:59:20;7.00;;;4.60;;
55134;SDS011;41031;44.750;11.308;2024-03-02T09:01:49;7.57;;;4.40;;
55134;SDS011;41031;44.750;11.308;2024-03-02T09:04:18;6.13;;;4.53;;
55134;SDS011;41031;44.750;11.308;2024-03-02T09:06:52;6.70;;;4.20;;
55134;SDS011;41031;44.750;11.308;2024-03-02T09:09:21;6.20;;;4.47;;
55134;SDS011;41031;44.750;11.308;2024-03-02T09:11:50;7.90;;;4.50;;
55134;SDS011;41031;44.750;11.308;2024-03-02T09:14:19;5.10;;;4.00;;
55134;SDS011;41031;44.750;11.308;2024-03-02T09:16:49;5.07;;;4.57;;
55134;SDS011;41031;44.750;11.308;2024-03-02T09:19:18;8.73;;;4.60;;
55134;SDS011;41031;44.750;11.308;2024-03-02T09:21:46;6.87;;;4.30;;
55134;SDS011;41031;44.750;11.308;2024-03-02T09:24:15;8.40;;;4.47;;
55134;SDS011;41031;44.750;11.308;2024-03-02T09:26:44;5.00;;;4.13;;
55134;SDS011;41031;44.750;11.308;2024-03-02T09:29:13;8.67;;;5.03;;
55134;SDS011;41031;44.750;11.308;2024-03-02T09:31:42;8.47;;;5.50;;
55134;SDS011;41031;44.750;11.308;2024-03-02T09:34:11;7.43;;;5.23;;
55134;SDS011;41031;44.750;11.308;2024-03-02T09:36:43;4.73;;;4.23;;
55134;SDS011;41031;44.750;11.308;2024-03-02T09:39:12;6.43;;;4.67;;
55134;SDS011;41031;44.750;11.308;2024-03-02T09:41:42;8.80;;;4.80;;
55134;SDS011;41031;44.750;11.308;2024-03-02T09:44:12;4.97;;;3.97;;
55134;SDS011;41031;44.750;11.308;2024-03-02T09:46:42;5.50;;;3.73;;
55134;SDS011;41031;44.750;11.308;2024-03-02T09:49:12;5.03;;;3.50;;
55134;SDS011;41031;44.750;11.308;2024-03-02T09:51:43;8.33;;;3.70;;
55134;SDS011;41031;44.750;11.308;2024-03-02T09:54:20;4.17;;;3.17;;
55134;SDS011;41031;44.750;11.308;2024-03-02T09:56:51;8.17;;;3.50;;
55134;SDS011;41031;44.750;11.308;2024-03-02T09:59:21;6.03;;;3.80;;
55134;SDS011;41031;44.750;11.308;2024-03-02T10:01:58;5.83;;;4.13;;
55134;SDS011;41031;44.750;11.308;2024-03-02T10:04:28;5.37;;;3.50;;
55134;SDS011;41031;44.750;11.308;2024-03-02T10:07:10;4.13;;;3.60;;
55134;SDS011;41031;44.750;11.308;2024-03-02T10:09:44;5.47;;;3.30;;
55134;SDS011;41031;44.750;11.308;2024-03-02T10:12:15;5.70;;;3.00;;
55134;SDS011;41031;44.750;11.308;2024-03-02T10:14:45;3.17;;;2.67;;
55134;SDS011;41031;44.750;11.308;2024-03-02T10:17:17;8.73;;;3.10;;
55134;SDS011;41031;44.750;11.308;2024-03-02T10:19:45;3.30;;;2.93;;
55134;SDS011;41031;44.750;11.308;2024-03-02T10:22:14;2.87;;;2.53;;
55134;SDS011;41031;44.750;11.308;2024-03-02T10:24:44;3.27;;;2.93;;
55134;SDS011;41031;44.750;11.308;2024-03-02T10:27:26;3.10;;;2.77;;
55134;SDS011;41031;44.750;11.308;2024-03-02T10:29:56;3.80;;;2.80;;
55134;SDS011;41031;44.750;11.308;2024-03-02T10:32:25;2.10;;;1.90;;
55134;SDS011;41031;44.750;11.308;2024-03-02T10:34:55;3.63;;;2.47;;
55134;SDS011;41031;44.750;11.308;2024-03-02T10:37:26;2.77;;;2.30;;
55134;SDS011;41031;44.750;11.308;2024-03-02T10:39:55;2.50;;;2.03;;
55134;SDS011;41031;44.750;11.308;2024-03-02T10:42:24;2.57;;;1.63;;
55134;SDS011;41031;44.750;11.308;2024-03-02T10:44:52;2.87;;;2.20;;
55134;SDS011;41031;44.750;11.308;2024-03-02T10:47:23;2.60;;;2.20;;
55134;SDS011;41031;44.750;11.308;2024-03-02T10:49:56;3.17;;;2.17;;
55134;SDS011;41031;44.750;11.308;2024-03-02T10:52:28;2.70;;;2.50;;
55134;SDS011;41031;44.750;11.308;2024-03-02T10:54:56;3.07;;;2.83;;
55134;SDS011;41031;44.750;11.308;2024-03-02T10:57:25;4.67;;;3.10;;
55134;SDS011;41031;44.750;11.308;2024-03-02T11:00:01;3.70;;;3.23;;
55134;SDS011;41031;44.750;11.308;2024-03-02T11:02:30;3.73;;;3.30;;
55134;SDS011;41031;44.750;11.308;2024-03-02T11:04:59;5.60;;;3.20;;
55134;SDS011;41031;44.750;11.308;2024-03-02T11:07:36;4.90;;;3.47;;
55134;SDS011;41031;44.750;11.308;2024-03-02T11:10:08;4.07;;;3.50;;
55134;SDS011;41031;44.750;11.308;2024-03-02T11:12:47;3.47;;;2.90;;
55134;SDS011;41031;44.750;11.308;2024-03-02T11:15:25;3.77;;;2.70;;
55134;SDS011;41031;44.750;11.308;2024-03-02T11:17:56;2.50;;;2.30;;
55134;SDS011;41031;44.750;11.308;2024-03-02T11:20:25;3.63;;;2.60;;
55134;SDS011;41031;44.750;11.308;2024-03-02T11:22:57;4.87;;;2.40;;
55134;SDS011;41031;44.750;11.308;2024-03-02T11:25:31;2.83;;;2.00;;
55134;SDS011;41031;44.750;11.308;2024-03-02T11:28:01;3.20;;;2.60;;
55134;SDS011;41031;44.750;11.308;2024-03-02T11:33:03;3.33;;;2.40;;
55134;SDS011;41031;44.750;11.308;2024-03-02T11:35:40;3.50;;;2.10;;
55134;SDS011;41031;44.750;11.308;2024-03-02T11:38:10;2.23;;;2.10;;
55134;SDS011;41031;44.750;11.308;2024-03-02T11:40:39;4.23;;;2.30;;
55134;SDS011;41031;44.750;11.308;2024-03-02T11:43:07;2.87;;;2.43;;
55134;SDS011;41031;44.750;11.308;2024-03-02T11:45:35;7.47;;;2.90;;
55134;SDS011;41031;44.750;11.308;2024-03-02T11:48:07;2.90;;;2.60;;
55134;SDS011;41031;44.750;11.308;2024-03-02T11:50:49;3.63;;;2.90;;
55134;SDS011;41031;44.750;11.308;2024-03-02T11:53:18;3.33;;;2.83;;
55134;SDS011;41031;44.750;11.308;2024-03-02T11:55:48;2.87;;;2.67;;
55134;SDS011;41031;44.750;11.308;2024-03-02T11:58:19;4.33;;;2.30;;
55134;SDS011;41031;44.750;11.308;2024-03-02T12:00:52;2.27;;;1.90;;
55134;SDS011;41031;44.750;11.308;2024-03-02T12:03:23;2.07;;;1.80;;
55134;SDS011;41031;44.750;11.308;2024-03-02T12:05:54;2.47;;;2.23;;
55134;SDS011;41031;44.750;11.308;2024-03-02T12:08:22;1.53;;;1.43;;
55134;SDS011;41031;44.750;11.308;2024-03-02T12:11:01;3.57;;;1.90;;
55134;SDS011;41031;44.750;11.308;2024-03-02T12:13:30;2.13;;;1.47;;
55134;SDS011;41031;44.750;11.308;2024-03-02T12:15:58;2.00;;;1.80;;
55134;SDS011;41031;44.750;11.308;2024-03-02T12:18:26;1.97;;;1.87;;
55134;SDS011;41031;44.750;11.308;2024-03-02T12:20:54;1.80;;;1.33;;
55134;SDS011;41031;44.750;11.308;2024-03-02T12:23:26;2.23;;;1.67;;
55134;SDS011;41031;44.750;11.308;2024-03-02T12:25:54;1.63;;;1.53;;
55134;SDS011;41031;44.750;11.308;2024-03-02T12:28:22;1.33;;;1.20;;
55134;SDS011;41031;44.750;11.308;2024-03-02T12:30:50;3.63;;;1.40;;
55134;SDS011;41031;44.750;11.308;2024-03-02T12:33:19;1.80;;;1.60;;
55134;SDS011;41031;44.750;11.308;2024-03-02T12:35:48;2.40;;;1.30;;
55134;SDS011;41031;44.750;11.308;2024-03-02T12:38:17;1.20;;;1.10;;
55134;SDS011;41031;44.750;11.308;2024-03-02T12:40:47;1.00;;;1.00;;
55134;SDS011;41031;44.750;11.308;2024-03-02T12:43:16;1.70;;;1.20;;
55134;SDS011;41031;44.750;11.308;2024-03-02T12:45:43;1.30;;;1.20;;
55134;SDS011;41031;44.750;11.308;2024-03-02T12:48:12;0.90;;;0.90;;
55134;SDS011;41031;44.750;11.308;2024-03-02T12:50:42;1.73;;;1.10;;
55134;SDS011;41031;44.750;11.308;2024-03-02T12:53:16;1.63;;;1.10;;
55134;SDS011;41031;44.750;11.308;2024-03-02T12:55:44;0.87;;;0.87;;
55134;SDS011;41031;44.750;11.308;2024-03-02T12:58:21;1.20;;;1.10;;
55134;SDS011;41031;44.750;11.308;2024-03-02T13:00:50;3.00;;;1.07;;
55134;SDS011;41031;44.750;11.308;2024-03-02T13:03:18;3.83;;;0.93;;
55134;SDS011;41031;44.750;11.308;2024-03-02T13:05:49;0.80;;;0.80;;
55134;SDS011;41031;44.750;11.308;2024-03-02T13:08:17;2.07;;;1.10;;
55134;SDS011;41031;44.750;11.308;2024-03-02T13:10:46;1.50;;;0.80;;
55134;SDS011;41031;44.750;11.308;2024-03-02T13:13:15;1.73;;;0.83;;
55134;SDS011;41031;44.750;11.308;2024-03-02T13:15:45;3.40;;;0.80;;
55134;SDS011;41031;44.750;11.308;2024-03-02T13:18:13;0.80;;;0.80;;
55134;SDS011;41031;44.750;11.308;2024-03-02T13:20:41;0.87;;;0.70;;
55134;SDS011;41031;44.750;11.308;2024-03-02T13:23:10;1.07;;;0.97;;
55134;SDS011;41031;44.750;11.308;2024-03-02T13:25:38;0.80;;;0.80;;
55134;SDS011;41031;44.750;11.308;2024-03-02T13:28:06;0.67;;;0.67;;
55134;SDS011;41031;44.750;11.308;2024-03-02T13:30:34;1.10;;;0.60;;
55134;SDS011;41031;44.750;11.308;2024-03-02T13:33:02;0.70;;;0.70;;
55134;SDS011;41031;44.750;11.308;2024-03-02T13:35:29;0.63;;;0.63;;
55134;SDS011;41031;44.750;11.308;2024-03-02T13:37:58;0.70;;;0.70;;
55134;SDS011;41031;44.750;11.308;2024-03-02T13:40:27;1.07;;;0.50;;
55134;SDS011;41031;44.750;11.308;2024-03-02T13:42:58;0.60;;;0.60;;
55134;SDS011;41031;44.750;11.308;2024-03-02T13:45:26;2.10;;;1.03;;
55134;SDS011;41031;44.750;11.308;2024-03-02T13:47:54;1.20;;;0.80;;
55134;SDS011;41031;44.750;11.308;2024-03-02T13:50:23;3.20;;;0.80;;
55134;SDS011;41031;44.750;11.308;2024-03-02T13:52:51;2.00;;;1.00;;
55134;SDS011;41031;44.750;11.308;2024-03-02T13:55:18;1.80;;;1.10;;
55134;SDS011;41031;44.750;11.308;2024-03-02T13:57:49;1.43;;;1.10;;
55134;SDS011;41031;44.750;11.308;2024-03-02T14:00:18;2.17;;;1.10;;
55134;SDS011;41031;44.750;11.308;2024-03-02T14:02:47;1.00;;;0.90;;
55134;SDS011;41031;44.750;11.308;2024-03-02T14:05:17;1.70;;;1.17;;
55134;SDS011;41031;44.750;11.308;2024-03-02T14:07:45;1.83;;;1.07;;
55134;SDS011;41031;44.750;11.308;2024-03-02T14:10:13;2.57;;;0.93;;
55134;SDS011;41031;44.750;11.308;2024-03-02T14:12:42;3.10;;;1.17;;
55134;SDS011;41031;44.750;11.308;2024-03-02T14:15:10;0.90;;;0.90;;
55134;SDS011;41031;44.750;11.308;2024-03-02T14:17:37;1.33;;;0.90;;
55134;SDS011;41031;44.750;11.308;2024-03-02T14:20:05;0.83;;;0.63;;
55134;SDS011;41031;44.750;11.308;2024-03-02T14:22:33;0.80;;;0.70;;
55134;SDS011;41031;44.750;11.308;2024-03-02T14:25:01;0.70;;;0.70;;
55134;SDS011;41031;44.750;11.308;2024-03-02T14:27:29;3.03;;;1.43;;
55134;SDS011;41031;44.750;11.308;2024-03-02T14:30:17;1.53;;;0.70;;
55134;SDS011;41031;44.750;11.308;2024-03-02T14:32:45;1.67;;;1.30;;
55134;SDS011;41031;44.750;11.308;2024-03-02T14:35:12;2.53;;;1.20;;
55134;SDS011;41031;44.750;11.308;2024-03-02T14:37:41;3.80;;;0.90;;
55134;SDS011;41031;44.750;11.308;2024-03-02T14:40:11;1.83;;;1.10;;
55134;SDS011;41031;44.750;11.308;2024-03-02T14:42:40;1.27;;;1.07;;
55134;SDS011;41031;44.750;11.308;2024-03-02T14:45:09;4.23;;;1.80;;
55134;SDS011;41031;44.750;11.308;2024-03-02T14:47:37;2.67;;;1.67;;
55134;SDS011;41031;44.750;11.308;2024-03-02T14:50:05;5.07;;;1.67;;
55134;SDS011;41031;44.750;11.308;2024-03-02T14:52:34;2.23;;;1.27;;